Flight Track Log - Related Links

Times and Time Zones

All times are in EDT time to prevent confusion due to time zone crossing. See the FDX1116 flight status page for this flight to view local times or setup timezone preferences in your user account.

Time Position Orientation Groundspeed Altitude Reporting Facility
EDT Latitude Longitude Course Direction KTS MPH feet Rate Location/Type
Thu 11:12:38 PM 34.0520 -117.6260 244° Southwest 158 182 2,400  Level FlightAware ADS-B
Thu 11:12:53 PM 34.0420 -117.6350 217° Southwest 190 219 2,900 2,533 Climbing FlightAware ADS-B
Thu 11:13:23 PM 34.0130 -117.6240 163° South 225 259 4,300 3,300 Climbing FlightAware ADS-B
Thu 11:13:53 PM 33.9890 -117.6000 140° Southeast 240 276 6,200 3,273 Climbing FlightAware ADS-B
Thu 11:14:18 PM 33.9670 -117.5780 140° Southeast 265 305 7,300 2,618 Climbing FlightAware ADS-B
Thu 11:14:48 PM 33.9370 -117.5480 140° Southeast 294 338 8,600 1,600 Climbing FlightAware ADS-B
Thu 11:15:18 PM 33.9030 -117.5170 143° Southeast 302 348 8,900 1,886 Climbing FlightAware ADS-B
Thu 11:15:58 PM 33.8560 -117.4780 145° Southeast 324 373 10,800 2,325 Climbing FlightAware ADS-B
Thu 11:16:38 PM 33.8010 -117.4310 145° Southeast 380 437 12,000 2,118 Climbing FlightAware ADS-B
Thu 11:17:23 PM 33.7390 -117.3660 139° Southeast 402 463 13,800 2,200 Climbing FlightAware ADS-B
Thu 11:17:38 PM 33.7300 -117.3390 112° Southeast 408 470 14,200 2,945 Climbing FlightAware ADS-B
Thu 11:18:18 PM 33.7200 -117.2470 97° East 413 475 16,500 3,150 Climbing FlightAware ADS-B
Thu 11:18:58 PM 33.7130 -117.1530 95° East 427 491 18,400 3,035 Climbing FlightAware ADS-B
Thu 11:19:43 PM 33.7040 -117.0430 96° East 436 502 20,800 2,824 Climbing FlightAware ADS-B
Thu 11:20:23 PM 33.6960 -116.9420 95° East 451 519 22,400 2,400 Climbing FlightAware ADS-B
Thu 11:21:03 PM 33.6880 -116.8410 95° East 463 533 24,000 2,259 Climbing FlightAware ADS-B
Thu 11:21:48 PM 33.6780 -116.7260 96° East 476 548 25,600 2,118 Climbing FlightAware ADS-B
Thu 11:22:28 PM 33.6690 -116.6220 96° East 488 562 27,000 1,976 Climbing FlightAware ADS-B
Thu 11:23:13 PM 33.6580 -116.5020 96° East 499 574 28,400 1,050 Climbing FlightAware ADS-B
Thu 11:23:48 PM 33.6520 -116.4130 95° East 499 574 28,400 1,725 Level FlightAware ADS-B
Thu 11:24:33 PM 33.6390 -116.2860 97° East 494 568 30,700 1,624 Climbing FlightAware ADS-B
Thu 11:25:13 PM 33.6310 -116.1930 96° East 494 568 30,700  Level FlightAware ADS-B
Thu 11:25:53 PM 33.6230 -116.1000 96° East 494 568 30,700  Level FlightAware ADS-B
Thu 11:26:43 PM 33.6130 -115.9840 96° East 494 568 30,700  Level FlightAware ADS-B
Thu 11:27:23 PM 33.6050 -115.8910 96° East 494 568 30,700 5,012 Level FlightAware ADS-B
Thu 11:28:08 PM 33.6300 -115.6890 81° East 496 571 37,800 5,082 Climbing FlightAware ADS-B
Thu 11:28:48 PM 33.6440 -115.5940 80° East 496 571 37,900 75 Climbing FlightAware ADS-B
Thu 11:29:28 PM 33.6580 -115.5010 80° East 496 571 37,900 776 Level FlightAware ADS-B
Thu 11:30:13 PM 33.6820 -115.3470 79° East 516 594 39,000 825 Climbing FlightAware ADS-B
Thu 11:30:48 PM 33.6960 -115.2560 79° East 516 594 39,000  Level FlightAware ADS-B
Thu 11:31:38 PM 33.7160 -115.1360 79° East 516 594 39,000  Level FlightAware ADS-B
Thu 11:32:18 PM 33.7310 -115.0400 79° East 516 594 39,000  Level FlightAware ADS-B
Thu 11:32:58 PM 33.7470 -114.9130 81° East 39,000  Level FlightAware ADS-B
Thu 11:33:33 PM 33.7590 -114.8330 80° East 504 580 39,000  Level FlightAware ADS-B
Thu 11:34:18 PM 33.7760 -114.7180 80° East 504 580 39,000  Level FlightAware ADS-B
Thu 11:35:08 PM 33.7930 -114.6000 80° East 504 580 39,000  Level FlightAware ADS-B
Thu 11:35:53 PM 33.8180 -114.4180 81° East 506 582 39,000  Level FlightAware ADS-B
Thu 11:36:38 PM 33.8320 -114.3150 81° East 507 583 39,000  Level FlightAware ADS-B
Thu 11:37:18 PM 33.8470 -114.2030 81° East 509 586 39,000  Level FlightAware ADS-B
Thu 11:38:08 PM 33.8720 -114.0210 81° East 515 593 39,000  Level FlightAware ADS-B
Thu 11:38:43 PM 33.8850 -113.9220 81° East 516 594 39,000  Level FlightAware ADS-B
Thu 11:39:33 PM 33.9030 -113.7880 81° East 518 596 39,000  Level FlightAware ADS-B
Thu 11:40:13 PM 33.9170 -113.6800 81° East 519 597 39,000  Level FlightAware ADS-B
Thu 11:41:08 PM 33.9360 -113.5310 81° East 521 600 39,000  Level FlightAware ADS-B
Thu 11:41:53 PM 33.9560 -113.3820 81° East 523 602 39,000  Level FlightAware ADS-B
Thu 11:42:33 PM 33.9700 -113.2730 81° East 523 602 39,000  Level FlightAware ADS-B
Thu 11:43:18 PM 33.9860 -113.1400 82° East 523 602 39,000  Level FlightAware ADS-B
Thu 11:43:58 PM 34.0010 -113.0220 81° East 524 603 39,000  Level FlightAware ADS-B
Thu 11:44:38 PM 34.0160 -112.9070 81° East 524 603 39,000  Level FlightAware ADS-B
Thu 11:45:23 PM 34.0320 -112.7770 82° East 524 603 39,000  Level FlightAware ADS-B
Thu 11:46:03 PM 34.0460 -112.6590 82° East 523 602 39,000  Level FlightAware ADS-B
Thu 11:46:48 PM 34.0620 -112.5290 82° East 521 600 39,000  Level FlightAware ADS-B
Thu 11:47:28 PM 34.0760 -112.4140 82° East 522 601 39,000  Level FlightAware ADS-B
Thu 11:48:03 PM 34.0880 -112.3130 82° East 523 602 39,000  Level FlightAware ADS-B
Thu 11:48:53 PM 34.1050 -112.1720 82° East 525 604 39,000  Level FlightAware ADS-B
Thu 11:49:33 PM 34.1180 -112.0620 82° East 524 603 39,000  Level FlightAware ADS-B
Thu 11:50:13 PM 34.1320 -111.9400 82° East 523 602 39,000  Level FlightAware ADS-B
Thu 11:50:58 PM 34.1470 -111.8080 82° East 521 600 39,000  Level FlightAware ADS-B
Thu 11:51:38 PM 34.1600 -111.6950 82° East 522 601 39,000  Level FlightAware ADS-B
Thu 11:52:18 PM 34.1730 -111.5800 82° East 521 600 39,000  Level FlightAware ADS-B
Thu 11:53:03 PM 34.1850 -111.4790 82° East 522 601 39,000  Level FlightAware ADS-B
Thu 11:53:43 PM 34.1980 -111.3640 82° East 520 598 39,000  Level FlightAware ADS-B
Thu 11:54:28 PM 34.2120 -111.2340 83° East 518 596 39,000  Level FlightAware ADS-B
Thu 11:55:08 PM 34.2250 -111.1170 82° East 517 595 39,000  Level FlightAware ADS-B
Thu 11:55:58 PM 34.2410 -110.9680 83° East 517 595 39,000  Level FlightAware ADS-B
Thu 11:56:43 PM 34.2540 -110.8540 82° East 517 595 39,000  Level FlightAware ADS-B
Thu 11:57:23 PM 34.2650 -110.7570 82° East 517 595 39,000  Level FlightAware ADS-B
Thu 11:58:13 PM 34.2800 -110.6350 82° East 517 595 39,000  Level FlightAware ADS-B
Thu 11:58:53 PM 34.2910 -110.5370 82° East 517 595 39,000  Level FlightAware ADS-B
Thu 11:59:33 PM 34.3020 -110.4400 82° East 517 595 39,000  Level FlightAware ADS-B
Fri 12:00:13 AM 34.3140 -110.3420 82° East 517 595 39,000  Level FlightAware ADS-B
Fri 12:00:53 AM 34.3250 -110.2450 82° East 517 595 39,000  Level FlightAware ADS-B
Fri 12:01:43 AM 34.3390 -110.1230 82° East 517 595 39,000  Level FlightAware ADS-B
Fri 12:02:23 AM 34.3500 -110.0250 82° East 517 595 39,000  Level FlightAware ADS-B
Fri 12:03:03 AM 34.3620 -109.9280 81° East 517 595 39,000  Level FlightAware ADS-B
Fri 12:03:43 AM 34.3730 -109.8300 82° East 517 595 39,000  Level FlightAware ADS-B
Fri 12:04:23 AM 34.3840 -109.7330 82° East 517 595 39,000  Level FlightAware ADS-B
Fri 12:05:13 AM 34.3980 -109.6110 82° East 517 595 39,000  Level FlightAware ADS-B
Fri 12:05:53 AM 34.4100 -109.5130 82° East 517 595 39,000  Level FlightAware ADS-B
Fri 12:07:03 AM 34.4240 -109.0300 88° East 527 606 39,000  Level FlightAware ADS-B
Fri 12:07:48 AM 34.4230 -108.8910 90° East 527 606 39,000  Level FlightAware ADS-B
Fri 12:08:28 AM 34.4230 -108.7730 90° East 529 609 39,000  Level FlightAware ADS-B
Fri 12:09:13 AM 34.4220 -108.6460 91° East 529 609 39,000  Level FlightAware ADS-B
Fri 12:09:43 AM 34.4210 -108.5570 91° East 529 609 39,000  Level FlightAware ADS-B
Fri 12:10:33 AM 34.4200 -108.4060 90° East 530 610 39,000  Level FlightAware ADS-B
Fri 12:11:13 AM 34.4190 -108.2940 91° East 530 610 39,000  Level FlightAware ADS-B
Fri 12:11:58 AM 34.4180 -108.1510 90° East 531 611 39,000  Level FlightAware ADS-B
Fri 12:12:33 AM 34.4170 -108.0530 91° East 532 612 39,000  Level FlightAware ADS-B
Fri 12:13:23 AM 34.4150 -107.9040 91° East 534 615 39,000  Level FlightAware ADS-B
Fri 12:14:08 AM 34.4130 -107.7790 91° East 533 613 39,000  Level FlightAware ADS-B
Fri 12:14:48 AM 34.4110 -107.6480 91° East 532 612 39,000  Level FlightAware ADS-B
Fri 12:15:28 AM 34.4100 -107.5260 91° East 532 612 39,000  Level FlightAware ADS-B
Fri 12:16:13 AM 34.4080 -107.3960 91° East 531 611 39,000  Level FlightAware ADS-B
Fri 12:16:53 AM 34.4060 -107.2770 91° East 530 610 39,000  Level FlightAware ADS-B
Fri 12:17:33 AM 34.4030 -107.1560 92° East 529 609 39,000  Level FlightAware ADS-B
Fri 12:18:13 AM 34.4010 -107.0490 91° East 530 610 39,000  Level FlightAware ADS-B
Fri 12:18:58 AM 34.3980 -106.9100 91° East 529 609 39,000  Level FlightAware ADS-B
Fri 12:19:43 AM 34.3960 -106.7770 91° East 532 612 39,000  Level FlightAware ADS-B
Fri 12:20:18 AM 34.3930 -106.6720 92° East 533 613 39,000  Level FlightAware ADS-B
Fri 12:21:08 AM 34.3900 -106.5200 91° East 536 617 39,000  Level FlightAware ADS-B
Fri 12:21:38 AM 34.3880 -106.4360 92° East 537 618 39,000  Level FlightAware ADS-B
Fri 12:22:23 AM 34.3840 -106.2980 92° East 538 619 39,000  Level FlightAware ADS-B
Fri 12:23:08 AM 34.3810 -106.1600 91° East 538 619 39,000  Level FlightAware ADS-B
Fri 12:23:53 AM 34.3770 -106.0250 92° East 538 619 39,000  Level FlightAware ADS-B
Fri 12:24:33 AM 34.3750 -105.9150 91° East 538 619 39,000  Level FlightAware ADS-B
Fri 12:25:13 AM 34.3730 -105.8130 91° East 538 619 39,000  Level FlightAware ADS-B
Fri 12:25:53 AM 34.3720 -105.7100 91° East 538 619 39,000  Level FlightAware ADS-B
Fri 12:26:33 AM 34.3700 -105.6080 91° East 538 619 39,000  Level FlightAware ADS-B
Fri 12:27:28 AM 34.3830 -105.3870 86° East 538 619 39,000  Level FlightAware ADS-B
Fri 12:28:18 AM 34.3900 -105.2590 86° East 538 619 39,000  Level FlightAware ADS-B
Fri 12:28:58 AM 34.3960 -105.1570 86° East 538 619 39,000  Level FlightAware ADS-B
Fri 12:29:38 AM 34.4020 -105.0540 86° East 538 619 39,000  Level FlightAware ADS-B
Fri 12:30:18 AM 34.4080 -104.9520 86° East 538 619 39,000  Level FlightAware ADS-B
Fri 12:31:08 AM 34.4150 -104.8240 86° East 538 619 39,000  Level FlightAware ADS-B
Fri 12:31:48 AM 34.4210 -104.7220 86° East 538 619 39,000  Level FlightAware ADS-B
Fri 12:32:28 AM 34.4270 -104.6190 86° East 538 619 39,000  Level FlightAware ADS-B
Fri 12:33:08 AM 34.4330 -104.5170 86° East 538 619 39,000  Level FlightAware ADS-B
Fri 12:33:48 AM 34.4390 -104.4150 86° East 538 619 39,000  Level FlightAware ADS-B
Fri 12:34:38 AM 34.4460 -104.2870 86° East 538 619 39,000  Level FlightAware ADS-B
Fri 12:35:18 AM 34.4520 -104.1840 86° East 538 619 39,000  Level FlightAware ADS-B
Fri 12:35:58 AM 34.4580 -104.0820 86° East 538 619 39,000  Level FlightAware ADS-B
Fri 12:36:38 AM 34.4640 -103.9790 86° East 538 619 39,000  Level FlightAware ADS-B
Fri 12:37:15 AM 34.4650 -103.6369 86° East 544 626 39,000  Level Fort Worth Center
Fri 12:38:15 AM 34.4706 -103.4786 88° East 518 596 39,000  Level Fort Worth Center
Fri 12:39:15 AM 34.4792 -103.3006 87° East 513 590 39,000  Level Fort Worth Center
Fri 12:40:15 AM 34.4853 -103.1222 88° East 518 596 39,000  Level Fort Worth Center
Fri 12:41:15 AM 34.4903 -102.9208 88° East 533 613 39,000  Level Fort Worth Center
Fri 12:42:15 AM 34.4833 -102.7417 93° East 533 613 39,000  Level Fort Worth Center
Fri 12:43:15 AM 34.4636 -102.5642 98° East 538 619 39,000  Level Fort Worth Center
Fri 12:44:15 AM 34.4481 -102.3844 96° East 543 625 39,000  Level Fort Worth Center
Fri 12:45:15 AM 34.4281 -102.1994 97° East 549 632 39,000  Level Fort Worth Center
Fri 12:46:15 AM 34.4111 -102.0375 97° East 541 623 39,000  Level Fort Worth Center
Fri 12:47:15 AM 34.3906 -101.8578 98° East 546 628 39,000 -500 Level Fort Worth Center
Fri 12:48:15 AM 34.3683 -101.6553 98° East 546 628 38,000 -1,200 Descending Fort Worth Center
Fri 12:49:15 AM 34.3489 -101.4883 98° East 551 634 36,600 -1,150 Descending Fort Worth Center
Fri 12:50:15 AM 34.3264 -101.2811 97° East 556 640 35,700 -700 Descending Fort Worth Center
Fri 12:51:15 AM 34.3083 -101.1144 97° East 561 646 35,200 -350 Descending Fort Worth Center
Fri 12:52:15 AM 34.2850 -100.9097 98° East 561 646 35,000 -100 Descending Fort Worth Center
Fri 12:53:15 AM 34.2628 -100.7281 98° East 561 646 35,000  Level Fort Worth Center
Fri 12:54:15 AM 34.2425 -100.5439 98° East 561 646 35,000  Level Fort Worth Center
Fri 12:55:15 AM 34.2197 -100.3722 99° East 561 646 35,000  Level Fort Worth Center
Fri 12:56:15 AM 34.1778 -100.2000 106° East 556 640 35,000  Level Fort Worth Center
Fri 12:57:15 AM 34.1189 -100.0225 112° Southeast 556 640 35,000  Level Fort Worth Center
Fri 12:58:15 AM 34.0597 -99.8578 113° Southeast 549 632 35,000  Level Fort Worth Center
Fri 12:59:15 AM 33.9981 -99.6908 114° Southeast 544 626 35,000  Level Fort Worth Center
Fri 01:00:15 AM 33.9406 -99.5264 113° Southeast 532 612 35,000  Level Fort Worth Center
Fri 01:01:15 AM 33.8806 -99.3650 114° Southeast 527 606 35,000 -650 Level Fort Worth Center
Fri 01:02:15 AM 33.8203 -99.2011 114° Southeast 527 606 33,700 -2,450 Descending Fort Worth Center
Fri 01:03:15 AM 33.7561 -99.0247 114° Southeast 527 606 30,100 -3,750 Descending Fort Worth Center
Fri 01:04:15 AM 33.6953 -98.8614 114° Southeast 532 612 26,200 -2,842 Descending Fort Worth Center
Fri 01:10:13 AM 33.3670 -97.9970 114° Southeast 385 443 10,300 -2,442 Descending FlightAware ADS-B
Fri 01:10:53 AM 33.3390 -97.9240 115° Southeast 345 397 10,000 -436 Descending FlightAware ADS-B
Fri 01:11:08 AM 33.3300 -97.9000 114° Southeast 332 382 9,900 -533 Descending FlightAware ADS-B
Fri 01:11:38 AM 33.3120 -97.8520 114° Southeast 314 361 9,600 -1,091 Descending FlightAware ADS-B
Fri 01:12:03 AM 33.2970 -97.8130 115° Southeast 314 361 8,900 -1,527 Descending FlightAware ADS-B
Fri 01:12:33 AM 33.2770 -97.7620 115° Southeast 312 359 8,200 -1,400 Descending FlightAware ADS-B
Fri 01:13:03 AM 33.2570 -97.7220 121° Southeast 314 361 7,500 -1,292 Descending FlightAware ADS-B
Fri 01:13:38 AM 33.2160 -97.6850 143° Southeast 306 352 6,800 -1,200 Descending FlightAware ADS-B
Fri 01:13:58 AM 33.1930 -97.6660 145° Southeast 301 346 6,400 -1,200 Descending FlightAware ADS-B
Fri 01:14:23 AM 33.1660 -97.6430 145° Southeast 297 342 5,900 -1,418 Descending FlightAware ADS-B
Fri 01:14:53 AM 33.1290 -97.6120 145° Southeast 293 337 5,100 -1,418 Descending FlightAware ADS-B
Fri 01:15:18 AM 33.1040 -97.5910 145° Southeast 290 334 4,600 -1,200 Descending FlightAware ADS-B
Fri 01:15:43 AM 33.0790 -97.5700 145° Southeast 285 328 4,100 -600 Descending FlightAware ADS-B
Fri 01:16:08 AM 33.0530 -97.5490 146° Southeast 285 328 4,100 -300 Level FlightAware ADS-B
Fri 01:16:43 AM 33.0170 -97.5180 144° Southeast 252 290 3,800 -277 Descending FlightAware ADS-B
Fri 01:17:13 AM 32.9890 -97.4960 147° Southeast 251 289 3,800  Level FlightAware ADS-B
Fri 01:17:38 AM 32.9660 -97.4770 145° Southeast 232 267 3,800  Level FlightAware ADS-B
Fri 01:17:53 AM 32.9520 -97.4660 147° Southeast 230 265 3,800  Level FlightAware ADS-B
Fri 01:18:23 AM 32.9230 -97.4500 155° Southeast 232 267 3,800  Level FlightAware ADS-B
Fri 01:18:53 AM 32.8940 -97.4340 155° Southeast 232 267 3,800  Level FlightAware ADS-B
Fri 01:19:18 AM 32.8690 -97.4190 153° Southeast 232 267 3,800  Level FlightAware ADS-B
Fri 01:19:48 AM 32.8410 -97.4030 154° Southeast 222 255 3,800 -133 Level FlightAware ADS-B
Fri 01:20:03 AM 32.8290 -97.3930 145° Southeast 219 252 3,700 -720 Descending FlightAware ADS-B
Fri 01:20:13 AM 32.8240 -97.3830 121° Southeast 214 246 3,500 -960 Descending FlightAware ADS-B
Fri 01:20:28 AM 32.8220 -97.3680 99° East 200 230 3,300 -933 Descending FlightAware ADS-B
Fri 01:20:58 AM 32.8200 -97.3360 94° East 191 220 2,800 -545 Descending FlightAware ADS-B
Fri 01:21:23 AM 32.8250 -97.3110 77° East 167 192 2,800  Level FlightAware ADS-B
Fri 01:21:53 AM 32.8380 -97.2910 52° Northeast 153 176 2,800  Level FlightAware ADS-B
Fri 01:22:03 AM 32.8440 -97.2890 16° North 145 167 2,800 -150 Level FlightAware ADS-B
Fri 01:22:33 AM 32.8650 -97.2930 351° North 147 169 2,700 -400 Descending FlightAware ADS-B
Fri 01:23:03 AM 32.8850 -97.2970 350° North 144 166 2,400 -771 Descending FlightAware ADS-B
Fri 01:23:43 AM 32.9110 -97.3020 351° North 151 174 1,800 -857 Descending FlightAware ADS-B
Fri 01:24:13 AM 32.9320 -97.3060 351° North 149 171 1,400 -800 Descending FlightAware ADS-B
Fri 01:24:28 AM 32.9410 -97.3080 349° North 128 147 1,200 -600 Descending FlightAware ADS-B
Fri 01:25:23 AM 32.9660 -97.3130 350° North 108 124 700 -375 Descending FlightAware ADS-B
Fri 01:25:48 AM 32.9780 -97.3160 348° North 108 124 700  Level FlightAware ADS-B
Fri 01:33:00 AM 32.9833 -97.3167 349° North  Level FlightAware Approximate

Login

Don't have an account? Register now (free) for customized features, flight alerts, and more!